createdAt,value
2023-03-10T00:00:38.260Z,10.60
2023-03-10T00:03:04.887Z,10.50
2023-03-10T00:05:31.649Z,10.50
2023-03-10T00:07:58.286Z,10.50
2023-03-10T00:10:25.003Z,10.50
2023-03-10T00:12:51.674Z,10.50
2023-03-10T00:15:18.623Z,10.50
2023-03-10T00:17:55.502Z,10.50
2023-03-10T00:20:23.031Z,10.50
2023-03-10T00:22:49.673Z,10.40
2023-03-10T00:25:16.622Z,10.40
2023-03-10T00:27:43.375Z,10.40
2023-03-10T00:30:11.092Z,10.40
2023-03-10T00:32:37.780Z,10.40
2023-03-10T00:35:14.475Z,10.40
2023-03-10T00:37:41.096Z,10.30
2023-03-10T00:40:11.113Z,10.30
2023-03-10T00:42:37.753Z,10.30
2023-03-10T00:45:04.956Z,10.30
2023-03-10T00:47:31.671Z,10.30
2023-03-10T00:49:58.301Z,10.30
2023-03-10T00:52:24.998Z,10.30
2023-03-10T00:54:51.703Z,10.30
2023-03-10T00:57:18.377Z,10.30
2023-03-10T00:59:50.314Z,10.30
2023-03-10T01:02:21.711Z,10.30
2023-03-10T01:04:48.727Z,10.30
2023-03-10T01:07:15.460Z,10.20
2023-03-10T01:09:43.882Z,10.20
2023-03-10T01:12:10.460Z,10.30
2023-03-10T01:14:37.074Z,10.20
2023-03-10T01:17:05.709Z,10.20
2023-03-10T01:19:32.532Z,10.20
2023-03-10T01:21:59.198Z,10.10
2023-03-10T01:24:25.817Z,10.10
2023-03-10T01:26:52.469Z,10.10
2023-03-10T01:29:19.072Z,10.00
2023-03-10T01:31:45.741Z,10.00
2023-03-10T01:34:12.826Z,10.00
2023-03-10T01:36:41.728Z,9.90
2023-03-10T01:39:08.382Z,9.90
2023-03-10T01:41:39.503Z,9.90
2023-03-10T01:44:14.174Z,9.90
2023-03-10T01:46:48.935Z,9.90
2023-03-10T01:49:28.101Z,9.90
2023-03-10T01:52:06.405Z,9.90
2023-03-10T01:55:07.282Z,9.80
2023-03-10T01:57:40.577Z,9.90
2023-03-10T02:00:14.748Z,9.90
2023-03-10T02:03:03.999Z,9.90
2023-03-10T02:05:32.103Z,9.80
2023-03-10T02:08:00.391Z,9.80
2023-03-10T02:10:27.234Z,9.80
2023-03-10T02:12:54.475Z,9.70
2023-03-10T02:15:21.257Z,9.70
2023-03-10T02:17:50.711Z,9.70
2023-03-10T02:20:47.630Z,9.70
2023-03-10T02:23:29.648Z,9.70
2023-03-10T02:26:16.949Z,9.70
2023-03-10T02:28:44.433Z,9.70
2023-03-10T02:31:12.234Z,9.70
2023-03-10T02:33:39.353Z,9.70
2023-03-10T02:36:20.222Z,9.70
2023-03-10T02:38:47.505Z,9.70
2023-03-10T02:41:25.139Z,9.70
2023-03-10T02:43:53.346Z,9.70
2023-03-10T02:46:20.696Z,9.70
2023-03-10T02:48:47.441Z,9.70
2023-03-10T02:51:23.621Z,9.70
2023-03-10T02:53:50.231Z,9.70
2023-03-10T02:56:16.896Z,9.70
2023-03-10T02:58:43.757Z,9.80
2023-03-10T03:01:10.694Z,9.90
2023-03-10T03:03:46.464Z,9.80
2023-03-10T03:06:13.817Z,9.80
2023-03-10T03:08:41.417Z,9.70
2023-03-10T03:11:09.104Z,9.70
2023-03-10T03:13:35.832Z,9.60
2023-03-10T03:16:13.422Z,9.60
2023-03-10T03:18:40.790Z,9.50
2023-03-10T03:21:15.819Z,9.50
2023-03-10T03:23:43.857Z,9.60
2023-03-10T03:26:20.372Z,9.60
2023-03-10T03:28:47.123Z,9.60
2023-03-10T03:31:20.721Z,9.70
2023-03-10T03:33:48.164Z,9.80
2023-03-10T03:36:15.552Z,9.60
2023-03-10T03:38:42.291Z,9.60
2023-03-10T03:41:09.662Z,9.60
2023-03-10T03:43:36.363Z,9.50
2023-03-10T03:46:04.314Z,9.50
2023-03-10T03:48:31.168Z,9.40
2023-03-10T03:50:57.746Z,9.40
2023-03-10T03:53:24.361Z,9.40
2023-03-10T03:55:51.228Z,9.30
2023-03-10T03:58:19.090Z,9.30
2023-03-10T04:00:45.751Z,9.30
2023-03-10T04:03:12.424Z,9.30
2023-03-10T04:05:39.549Z,9.20
2023-03-10T04:08:06.912Z,9.20
2023-03-10T04:10:33.786Z,9.20
2023-03-10T04:13:03.781Z,9.30
2023-03-10T04:15:30.484Z,9.20
2023-03-10T04:17:57.806Z,9.20
2023-03-10T04:20:25.567Z,9.20
2023-03-10T04:22:52.455Z,9.20
2023-03-10T04:25:19.210Z,9.30
2023-03-10T04:27:45.779Z,9.20
2023-03-10T04:30:14.719Z,9.20
2023-03-10T04:32:41.433Z,9.20
2023-03-10T04:35:08.786Z,9.10
2023-03-10T04:37:35.500Z,9.10
2023-03-10T04:40:08.186Z,9.10
2023-03-10T04:42:35.498Z,9.10
2023-03-10T04:45:02.429Z,9.00
2023-03-10T04:47:29.002Z,9.00
2023-03-10T04:49:55.561Z,9.00
2023-03-10T04:52:22.126Z,9.00
2023-03-10T04:54:48.753Z,9.10
2023-03-10T04:57:16.146Z,9.10
2023-03-10T04:59:42.905Z,9.10
2023-03-10T05:02:09.618Z,9.00
2023-03-10T05:04:36.346Z,9.10
2023-03-10T05:07:03.040Z,9.10
2023-03-10T05:09:29.607Z,9.10
2023-03-10T05:11:56.182Z,9.10
2023-03-10T05:14:22.850Z,9.20
2023-03-10T05:16:50.277Z,9.20
2023-03-10T05:19:17.228Z,9.10
2023-03-10T05:21:43.844Z,9.20
2023-03-10T05:24:10.435Z,9.10
2023-03-10T05:26:37.127Z,9.20
2023-03-10T05:29:04.726Z,9.20
2023-03-10T05:31:31.391Z,9.20
2023-03-10T05:33:58.054Z,9.20
2023-03-10T05:36:24.788Z,9.20
2023-03-10T05:38:52.624Z,9.20
2023-03-10T05:41:19.500Z,9.20
2023-03-10T05:43:46.080Z,9.20
2023-03-10T05:46:14.968Z,9.20
2023-03-10T05:48:41.657Z,9.30
2023-03-10T05:51:12.577Z,9.30
2023-03-10T05:53:40.049Z,9.30
2023-03-10T05:56:13.201Z,9.40
2023-03-10T05:58:40.612Z,9.30
2023-03-10T06:01:07.640Z,9.30
2023-03-10T06:03:35.730Z,9.30
2023-03-10T06:06:02.771Z,9.30
2023-03-10T06:08:29.959Z,9.30
2023-03-10T06:10:57.725Z,9.30
2023-03-10T06:13:25.484Z,9.30
2023-03-10T06:15:59.352Z,9.20
2023-03-10T06:18:27.800Z,9.30
2023-03-10T06:20:54.845Z,9.30
2023-03-10T06:23:23.041Z,9.40
2023-03-10T06:26:06.812Z,9.30
2023-03-10T06:28:37.165Z,9.40
2023-03-10T06:31:08.108Z,9.40
2023-03-10T06:33:35.461Z,9.40
2023-03-10T06:36:02.762Z,9.40
2023-03-10T06:38:30.468Z,9.50
2023-03-10T06:40:58.127Z,9.50
2023-03-10T06:43:25.269Z,9.50
2023-03-10T06:45:52.066Z,9.60
2023-03-10T06:48:18.988Z,9.70
2023-03-10T06:50:50.943Z,9.70
2023-03-10T06:53:20.259Z,9.80
2023-03-10T06:56:18.818Z,9.80
2023-03-10T06:58:45.757Z,10.00
2023-03-10T07:01:33.556Z,10.00
2023-03-10T07:04:01.543Z,10.20
2023-03-10T07:06:29.141Z,10.10
2023-03-10T07:08:56.234Z,10.20
2023-03-10T07:11:24.731Z,10.10
2023-03-10T07:13:52.320Z,10.10
2023-03-10T07:16:19.351Z,10.10
2023-03-10T07:18:46.037Z,10.10
2023-03-10T07:21:17.654Z,10.10
2023-03-10T07:23:45.044Z,10.10
2023-03-10T07:26:18.536Z,10.20
2023-03-10T07:28:46.115Z,10.50
2023-03-10T07:31:14.382Z,10.60
2023-03-10T07:33:41.029Z,10.60
2023-03-10T07:36:14.572Z,10.60
2023-03-10T07:38:41.453Z,10.60
2023-03-10T07:41:11.007Z,10.70
2023-03-10T07:43:38.144Z,10.50
2023-03-10T07:46:06.888Z,10.40
2023-03-10T07:48:34.027Z,10.30
2023-03-10T07:51:01.914Z,10.30
2023-03-10T07:53:28.915Z,10.40
2023-03-10T07:55:56.273Z,10.60
2023-03-10T07:58:24.262Z,10.80
2023-03-10T08:00:56.575Z,11.10
2023-03-10T08:03:25.620Z,11.50
2023-03-10T08:05:52.349Z,11.80
2023-03-10T08:08:21.076Z,12.20
2023-03-10T08:10:47.724Z,13.20
2023-03-10T08:13:15.086Z,14.30
2023-03-10T08:15:42.391Z,15.50
2023-03-10T08:18:09.444Z,17.00
2023-03-10T08:20:36.904Z,18.50
2023-03-10T08:23:04.104Z,19.70
2023-03-10T08:25:31.156Z,19.70
2023-03-10T08:27:57.832Z,19.70
2023-03-10T08:30:25.744Z,18.60
2023-03-10T08:32:52.342Z,17.30
2023-03-10T08:35:19.161Z,16.90
2023-03-10T08:37:55.128Z,17.40
2023-03-10T08:40:22.121Z,17.80
2023-03-10T08:42:48.792Z,17.70
2023-03-10T08:45:15.517Z,17.10
2023-03-10T08:47:42.461Z,16.40
2023-03-10T08:50:11.003Z,15.30
2023-03-10T08:52:37.983Z,14.30
2023-03-10T08:55:05.957Z,13.40
2023-03-10T08:57:33.205Z,12.80
2023-03-10T09:00:00.216Z,12.20
2023-03-10T09:02:29.243Z,12.00
2023-03-10T09:04:55.901Z,11.80
2023-03-10T09:07:22.451Z,11.60
2023-03-10T09:09:49.092Z,11.60
2023-03-10T09:12:15.745Z,11.60
2023-03-10T09:14:43.682Z,11.60
2023-03-10T09:17:12.027Z,12.30
2023-03-10T09:19:38.778Z,13.90
2023-03-10T09:22:05.468Z,14.70
2023-03-10T09:24:32.360Z,14.70
2023-03-10T09:26:59.001Z,14.40
2023-03-10T09:29:42.230Z,14.50
2023-03-10T09:32:10.458Z,14.60
2023-03-10T09:34:37.133Z,14.70
2023-03-10T09:37:06.348Z,14.60
2023-03-10T09:39:34.873Z,14.70
2023-03-10T09:42:26.093Z,14.90
2023-03-10T09:45:37.556Z,14.80
2023-03-10T09:48:26.309Z,14.60
2023-03-10T09:50:56.383Z,14.30
2023-03-10T09:53:56.877Z,14.40
2023-03-10T09:56:32.410Z,14.20
2023-03-10T09:59:29.666Z,13.70
2023-03-10T10:01:57.506Z,13.90
2023-03-10T10:04:43.166Z,14.30
2023-03-10T10:07:20.965Z,14.60
2023-03-10T10:10:18.869Z,14.50
2023-03-10T10:12:49.725Z,14.40
2023-03-10T10:15:22.672Z,14.30
2023-03-10T10:18:19.680Z,14.40
2023-03-10T10:21:00.201Z,14.30
2023-03-10T10:23:49.739Z,14.30
2023-03-10T10:26:18.875Z,14.20
2023-03-10T10:28:57.362Z,14.00
2023-03-10T10:31:31.293Z,13.70
2023-03-10T10:34:07.015Z,13.60
2023-03-10T10:36:38.088Z,13.60
2023-03-10T10:39:28.350Z,13.50
2023-03-10T10:42:12.321Z,13.40
2023-03-10T10:44:43.221Z,13.20
2023-03-10T10:47:36.433Z,13.20
2023-03-10T10:50:33.896Z,13.40
2023-03-10T10:53:34.292Z,13.60
2023-03-10T10:56:19.904Z,13.40
2023-03-10T10:59:02.439Z,13.30
2023-03-10T11:01:57.266Z,13.60
2023-03-10T11:04:27.255Z,13.70
2023-03-10T11:07:11.390Z,13.60
2023-03-10T11:09:38.388Z,13.60
2023-03-10T11:12:24.459Z,13.70
2023-03-10T11:15:03.009Z,13.60
2023-03-10T11:17:50.277Z,13.60
2023-03-10T11:20:50.596Z,13.70
2023-03-10T11:23:31.743Z,13.60
2023-03-10T11:26:22.453Z,13.70
2023-03-10T11:29:22.387Z,13.60
2023-03-10T11:32:18.604Z,13.40
2023-03-10T11:34:50.272Z,13.50
2023-03-10T11:37:34.102Z,13.30
2023-03-10T11:40:16.174Z,13.20
2023-03-10T11:42:55.257Z,13.30
2023-03-10T11:45:37.042Z,13.30
2023-03-10T11:48:44.323Z,13.10
2023-03-10T11:51:22.117Z,12.90
2023-03-10T11:53:56.033Z,13.00
2023-03-10T11:56:24.908Z,13.00
2023-03-10T11:59:01.799Z,12.80
2023-03-10T12:01:40.468Z,12.70
2023-03-10T12:04:30.794Z,12.90
2023-03-10T12:07:23.548Z,13.10
2023-03-10T12:09:54.578Z,13.20
2023-03-10T12:12:32.968Z,13.30
2023-03-10T12:15:05.892Z,13.30
2023-03-10T12:17:32.522Z,13.20
2023-03-10T12:20:27.400Z,13.10
2023-03-10T12:23:26.667Z,13.10
2023-03-10T12:25:53.440Z,13.00
2023-03-10T12:28:24.135Z,13.20
2023-03-10T12:30:56.395Z,13.20
2023-03-10T12:33:32.222Z,13.20
2023-03-10T12:36:40.593Z,12.80
2023-03-10T12:39:40.881Z,12.80
2023-03-10T12:42:35.201Z,12.70
2023-03-10T12:45:29.152Z,12.70
2023-03-10T12:48:11.276Z,12.60
2023-03-10T12:50:54.072Z,12.60
2023-03-10T12:53:44.295Z,12.60
2023-03-10T12:56:13.875Z,12.50
2023-03-10T12:58:47.650Z,12.40
2023-03-10T13:01:20.756Z,12.50
2023-03-10T13:03:52.368Z,12.40
2023-03-10T13:06:28.124Z,12.30
2023-03-10T13:09:29.427Z,12.20
2023-03-10T13:12:03.568Z,12.10
2023-03-10T13:14:39.905Z,12.00
2023-03-10T13:17:15.953Z,11.90
2023-03-10T13:19:42.551Z,11.90
2023-03-10T13:22:16.824Z,11.80
2023-03-10T13:24:43.683Z,11.80
2023-03-10T13:27:19.352Z,11.70
2023-03-10T13:30:02.871Z,11.60
2023-03-10T13:32:31.464Z,11.50
2023-03-10T13:34:59.063Z,11.40
2023-03-10T13:37:26.033Z,11.30
2023-03-10T13:39:53.307Z,11.20
2023-03-10T13:42:42.579Z,11.10
2023-03-10T13:45:23.013Z,11.00
2023-03-10T13:47:52.560Z,10.90
2023-03-10T13:50:19.315Z,10.80
2023-03-10T13:52:57.038Z,10.80
2023-03-10T13:55:24.190Z,10.70
2023-03-10T13:57:51.858Z,10.80
2023-03-10T14:00:22.550Z,10.80
2023-03-10T14:02:51.860Z,10.90
2023-03-10T14:05:45.599Z,11.00
2023-03-10T14:08:28.600Z,11.00
2023-03-10T14:11:34.674Z,11.20
2023-03-10T14:14:02.392Z,11.20
2023-03-10T14:16:55.010Z,11.20
2023-03-10T14:19:43.359Z,11.10
2023-03-10T14:22:35.679Z,11.00
2023-03-10T14:25:09.218Z,10.90
2023-03-10T14:27:41.058Z,10.90
2023-03-10T14:30:26.559Z,10.80
2023-03-10T14:32:54.736Z,10.70
2023-03-10T14:35:23.217Z,10.60
2023-03-10T14:37:51.367Z,10.50
2023-03-10T14:40:20.643Z,10.50
2023-03-10T14:42:50.178Z,10.60
2023-03-10T14:45:35.302Z,10.50
2023-03-10T14:48:11.425Z,10.50
2023-03-10T14:50:38.163Z,10.50
2023-03-10T14:53:15.323Z,10.40
2023-03-10T14:55:44.110Z,10.30
2023-03-10T14:58:21.093Z,10.30
2023-03-10T15:00:48.830Z,10.30
2023-03-10T15:03:18.732Z,10.40
2023-03-10T15:05:49.051Z,10.50
2023-03-10T15:08:17.437Z,10.50
2023-03-10T15:10:48.739Z,10.40
2023-03-10T15:13:18.256Z,10.20
2023-03-10T15:15:47.340Z,10.20
2023-03-10T15:18:18.806Z,10.10
2023-03-10T15:20:45.607Z,10.10
2023-03-10T15:23:16.531Z,10.10
2023-03-10T15:25:46.066Z,9.90
2023-03-10T15:28:13.760Z,10.00
2023-03-10T15:30:40.993Z,9.90
2023-03-10T15:33:07.918Z,9.90
2023-03-10T15:35:35.454Z,9.80
2023-03-10T15:38:02.381Z,9.70
2023-03-10T15:40:32.430Z,9.70
2023-03-10T15:42:59.832Z,9.60
2023-03-10T15:45:29.385Z,9.60
2023-03-10T15:47:57.462Z,9.50
2023-03-10T15:50:24.612Z,9.50
2023-03-10T15:52:56.741Z,9.40
2023-03-10T15:55:24.862Z,9.40
2023-03-10T15:57:52.095Z,9.40
2023-03-10T16:00:21.919Z,9.30
2023-03-10T16:02:55.050Z,9.20
2023-03-10T16:05:22.080Z,9.00
2023-03-10T16:07:48.911Z,8.90
2023-03-10T16:10:19.792Z,8.90
2023-03-10T16:12:46.863Z,9.00
2023-03-10T16:15:16.317Z,9.00
2023-03-10T16:17:44.281Z,8.90
2023-03-10T16:20:16.760Z,8.70
2023-03-10T16:22:43.527Z,8.70
2023-03-10T16:25:16.739Z,8.60
2023-03-10T16:27:45.626Z,8.50
2023-03-10T16:30:15.721Z,8.40
2023-03-10T16:32:47.391Z,8.50
2023-03-10T16:35:15.046Z,8.50
2023-03-10T16:37:42.309Z,8.50
2023-03-10T16:40:10.507Z,8.50
2023-03-10T16:42:37.195Z,8.40
2023-03-10T16:45:05.903Z,8.50
2023-03-10T16:47:33.421Z,8.40
2023-03-10T16:50:00.181Z,8.40
2023-03-10T16:52:26.858Z,8.40
2023-03-10T16:54:58.593Z,8.40
2023-03-10T16:57:25.210Z,8.30
2023-03-10T16:59:51.790Z,8.30
2023-03-10T17:02:18.408Z,8.30
2023-03-10T17:04:45.702Z,8.20
2023-03-10T17:07:12.518Z,8.20
2023-03-10T17:09:39.117Z,8.20
2023-03-10T17:12:06.860Z,8.10
2023-03-10T17:14:33.444Z,8.10
2023-03-10T17:17:01.346Z,8.00
2023-03-10T17:19:31.016Z,8.00
2023-03-10T17:21:59.099Z,7.90
2023-03-10T17:24:26.457Z,7.90
2023-03-10T17:26:53.360Z,7.90
2023-03-10T17:29:20.575Z,7.90
2023-03-10T17:31:50.210Z,7.80
2023-03-10T17:34:18.173Z,7.60
2023-03-10T17:36:45.179Z,7.70
2023-03-10T17:39:20.582Z,7.60
2023-03-10T17:41:48.022Z,7.50
2023-03-10T17:44:15.807Z,7.40
2023-03-10T17:46:42.476Z,7.40
2023-03-10T17:49:12.508Z,7.30
2023-03-10T17:51:44.166Z,7.30
2023-03-10T17:54:20.417Z,7.20
2023-03-10T17:56:48.171Z,7.20
2023-03-10T17:59:16.088Z,7.10
2023-03-10T18:01:44.883Z,7.00
2023-03-10T18:04:11.895Z,7.00
2023-03-10T18:06:38.732Z,6.90
2023-03-10T18:09:10.509Z,6.80
2023-03-10T18:11:37.151Z,6.70
2023-03-10T18:14:04.572Z,6.80
2023-03-10T18:16:35.514Z,6.70
2023-03-10T18:19:02.178Z,6.60
2023-03-10T18:21:39.143Z,6.40
2023-03-10T18:24:06.433Z,6.20
2023-03-10T18:26:33.607Z,5.90
2023-03-10T18:29:00.208Z,5.70
2023-03-10T18:31:30.878Z,5.60
2023-03-10T18:33:58.445Z,5.50
2023-03-10T18:36:29.325Z,5.40
2023-03-10T18:38:56.871Z,5.30
2023-03-10T18:41:26.392Z,5.20
2023-03-10T18:43:53.657Z,5.00
2023-03-10T18:46:20.662Z,4.60
2023-03-10T18:48:47.799Z,4.50
2023-03-10T18:51:14.510Z,4.40
2023-03-10T18:53:41.248Z,4.30
2023-03-10T18:56:08.288Z,4.20
2023-03-10T18:58:35.021Z,4.10
2023-03-10T19:01:01.616Z,4.10
2023-03-10T19:03:30.156Z,4.00
2023-03-10T19:05:57.047Z,4.10
2023-03-10T19:08:24.619Z,3.80
2023-03-10T19:10:59.121Z,3.70
2023-03-10T19:13:27.929Z,3.70
2023-03-10T19:15:55.954Z,3.60
2023-03-10T19:18:23.201Z,3.60
2023-03-10T19:20:50.773Z,3.50
2023-03-10T19:23:17.412Z,3.50
2023-03-10T19:25:44.049Z,3.50
2023-03-10T19:28:10.729Z,3.30
2023-03-10T19:30:42.603Z,3.20
2023-03-10T19:33:10.766Z,3.20
2023-03-10T19:35:38.533Z,3.10
2023-03-10T19:38:05.948Z,3.20
2023-03-10T19:40:33.061Z,3.20
2023-03-10T19:43:00.404Z,3.30
2023-03-10T19:45:27.449Z,3.20
2023-03-10T19:47:57.744Z,3.20
2023-03-10T19:50:25.226Z,3.20
2023-03-10T19:52:52.179Z,3.20
2023-03-10T19:55:23.107Z,3.20
2023-03-10T19:57:53.084Z,3.20
2023-03-10T20:00:30.765Z,3.10
2023-03-10T20:02:57.997Z,3.10
2023-03-10T20:05:26.627Z,3.00
2023-03-10T20:07:53.693Z,2.90
2023-03-10T20:10:21.734Z,2.90
2023-03-10T20:12:50.996Z,3.00
2023-03-10T20:15:18.010Z,3.00
2023-03-10T20:17:44.717Z,3.10
2023-03-10T20:20:14.813Z,2.80
2023-03-10T20:22:45.328Z,2.90
2023-03-10T20:25:15.820Z,3.00
2023-03-10T20:27:43.692Z,3.00
2023-03-10T20:30:17.923Z,2.90
2023-03-10T20:32:45.022Z,2.90
2023-03-10T20:35:13.290Z,3.00
2023-03-10T20:37:41.811Z,2.90
2023-03-10T20:40:13.344Z,2.80
2023-03-10T20:42:40.747Z,2.80
2023-03-10T20:45:09.347Z,2.90
2023-03-10T20:47:36.681Z,2.90
2023-03-10T20:50:06.872Z,2.80
2023-03-10T20:52:37.038Z,2.80
2023-03-10T20:55:06.386Z,2.90
2023-03-10T20:57:33.743Z,2.90
2023-03-10T21:00:01.038Z,2.80
2023-03-10T21:02:27.618Z,2.80
2023-03-10T21:04:55.486Z,2.90
2023-03-10T21:07:22.066Z,2.80
2023-03-10T21:09:48.657Z,2.80
2023-03-10T21:12:18.428Z,2.90
2023-03-10T21:14:45.921Z,2.80
2023-03-10T21:17:12.949Z,2.90
2023-03-10T21:19:42.292Z,2.90
2023-03-10T21:22:09.014Z,2.90
2023-03-10T21:24:35.617Z,2.90
2023-03-10T21:27:03.977Z,2.90
2023-03-10T21:29:30.609Z,2.90
2023-03-10T21:31:57.287Z,2.90
2023-03-10T21:34:24.037Z,2.90
2023-03-10T21:36:50.793Z,2.90
2023-03-10T21:39:17.860Z,2.90
2023-03-10T21:41:44.841Z,2.90
2023-03-10T21:44:12.040Z,2.90
2023-03-10T21:46:38.784Z,2.80
2023-03-10T21:49:05.493Z,2.80
2023-03-10T21:51:34.616Z,2.90
2023-03-10T21:54:03.010Z,2.90
2023-03-10T21:56:29.671Z,2.90
2023-03-10T21:58:57.072Z,2.90
2023-03-10T22:01:25.050Z,2.90
2023-03-10T22:03:51.662Z,2.90
2023-03-10T22:06:18.280Z,2.90
2023-03-10T22:08:44.888Z,2.90
2023-03-10T22:11:12.595Z,2.80
2023-03-10T22:13:39.914Z,2.80
2023-03-10T22:16:10.516Z,2.80
2023-03-10T22:18:37.594Z,2.80
2023-03-10T22:21:04.631Z,2.80
2023-03-10T22:23:31.281Z,2.80
2023-03-10T22:25:57.875Z,2.80
2023-03-10T22:28:24.493Z,2.80
2023-03-10T22:30:51.078Z,2.80
2023-03-10T22:33:17.873Z,2.80
2023-03-10T22:35:51.141Z,2.80
2023-03-10T22:38:20.117Z,2.80
2023-03-10T22:40:47.736Z,2.80
2023-03-10T22:43:14.645Z,2.80
2023-03-10T22:45:43.804Z,2.80
2023-03-10T22:48:10.621Z,2.70
2023-03-10T22:50:41.167Z,2.70
2023-03-10T22:53:14.837Z,2.70
2023-03-10T22:55:43.412Z,2.70
2023-03-10T22:58:11.043Z,2.70
2023-03-10T23:00:39.526Z,2.60
2023-03-10T23:03:07.129Z,2.50
2023-03-10T23:05:33.930Z,2.60
2023-03-10T23:08:00.597Z,2.60
2023-03-10T23:10:31.768Z,2.70
2023-03-10T23:13:00.571Z,2.70
2023-03-10T23:15:31.806Z,2.60
2023-03-10T23:18:00.144Z,2.60
2023-03-10T23:20:31.672Z,2.50
2023-03-10T23:23:00.925Z,2.60
2023-03-10T23:25:35.156Z,2.60
2023-03-10T23:28:03.485Z,2.60
2023-03-10T23:30:30.282Z,2.60
2023-03-10T23:32:57.354Z,2.60
2023-03-10T23:35:31.762Z,2.50
2023-03-10T23:38:00.175Z,2.60
2023-03-10T23:40:28.584Z,2.50
2023-03-10T23:42:58.793Z,2.50
2023-03-10T23:45:28.519Z,2.50
2023-03-10T23:47:57.766Z,2.40
2023-03-10T23:50:36.713Z,2.40
2023-03-10T23:53:05.863Z,2.30
2023-03-10T23:55:37.137Z,2.30
2023-03-10T23:58:04.889Z,2.30
